createdAt,value
2022-10-17T00:02:14.384Z,101000.95
2022-10-17T00:04:42.453Z,101005.58
2022-10-17T00:07:10.479Z,101013.23
2022-10-17T00:09:38.507Z,101023.21
2022-10-17T00:12:06.350Z,101021.98
2022-10-17T00:14:34.624Z,101021.63
2022-10-17T00:17:02.663Z,101021.48
2022-10-17T00:19:30.457Z,101020.29
2022-10-17T00:21:58.212Z,101023.73
2022-10-17T00:24:26.189Z,101020.48
2022-10-17T00:26:53.996Z,101022.61
2022-10-17T00:29:25.945Z,101027.58
2022-10-17T00:31:57.056Z,101030.80
2022-10-17T00:34:25.853Z,101032.27
2022-10-17T00:36:55.682Z,101030.14
2022-10-17T00:39:24.147Z,101022.83
2022-10-17T00:41:53.202Z,101017.98
2022-10-17T00:44:30.528Z,101023.92
2022-10-17T00:47:05.592Z,101027.41
2022-10-17T00:49:39.473Z,101029.35
2022-10-17T00:52:19.598Z,101028.36
2022-10-17T00:54:59.562Z,101028.61
2022-10-17T00:57:28.673Z,101030.38
2022-10-17T00:59:58.778Z,101032.71
2022-10-17T01:02:26.979Z,101031.84
2022-10-17T01:04:56.813Z,101032.88
2022-10-17T01:07:26.607Z,101026.98
2022-10-17T01:09:54.841Z,101031.81
2022-10-17T01:12:39.213Z,101036.34
2022-10-17T01:15:17.423Z,101031.45
2022-10-17T01:18:11.078Z,101028.73
2022-10-17T01:20:42.420Z,101028.04
2022-10-17T01:23:29.169Z,101022.13
2022-10-17T01:26:16.452Z,101020.84
2022-10-17T01:28:44.546Z,101018.75
2022-10-17T01:31:15.266Z,101015.55
2022-10-17T01:34:06.146Z,101012.36
2022-10-17T01:36:56.997Z,101006.54
2022-10-17T01:39:59.664Z,101001.35
2022-10-17T01:42:35.517Z,101008.15
2022-10-17T01:45:07.968Z,101005.09
2022-10-17T01:47:35.903Z,101005.56
2022-10-17T01:50:14.659Z,101003.89
2022-10-17T01:52:52.059Z,101003.19
2022-10-17T01:55:27.394Z,101013.77
2022-10-17T01:57:59.163Z,101020.02
2022-10-17T02:00:28.308Z,101024.92
2022-10-17T02:03:07.945Z,101025.34
2022-10-17T02:05:39.014Z,101031.54
2022-10-17T02:08:07.269Z,101031.73
2022-10-17T02:11:04.565Z,101033.02
2022-10-17T02:13:40.430Z,101036.09
2022-10-17T02:16:16.467Z,101033.48
2022-10-17T02:18:52.064Z,101029.00
2022-10-17T02:21:38.831Z,101026.75
2022-10-17T02:24:13.346Z,101026.34
2022-10-17T02:26:56.587Z,101031.29
2022-10-17T02:29:31.609Z,101032.01
2022-10-17T02:32:04.121Z,101038.40
2022-10-17T02:34:36.977Z,101044.21
2022-10-17T02:37:07.700Z,101050.26
2022-10-17T02:39:36.509Z,101059.53
2022-10-17T02:42:06.706Z,101057.64
2022-10-17T02:44:35.442Z,101055.42
2022-10-17T02:47:29.638Z,101052.48
2022-10-17T02:50:00.848Z,101043.33
2022-10-17T02:52:32.815Z,101046.61
2022-10-17T02:55:16.229Z,101047.05
2022-10-17T02:57:50.369Z,101047.57
2022-10-17T03:00:19.253Z,101050.34
2022-10-17T03:02:51.199Z,101053.31
2022-10-17T03:05:28.431Z,101055.94
2022-10-17T03:07:56.976Z,101056.67
2022-10-17T03:10:26.028Z,101061.48
2022-10-17T03:12:54.366Z,101067.23
2022-10-17T03:15:22.157Z,101068.30
2022-10-17T03:17:50.927Z,101066.85
2022-10-17T03:20:19.129Z,101063.78
2022-10-17T03:22:47.839Z,101063.07
2022-10-17T03:25:15.926Z,101070.41
2022-10-17T03:27:44.329Z,101071.02
2022-10-17T03:30:12.217Z,101068.46
2022-10-17T03:32:40.328Z,101071.40
2022-10-17T03:35:14.790Z,101071.68
2022-10-17T03:37:46.163Z,101072.70
2022-10-17T03:40:14.586Z,101070.75
2022-10-17T03:42:42.480Z,101067.57
2022-10-17T03:45:12.158Z,101063.01
2022-10-17T03:47:40.417Z,101069.16
2022-10-17T03:50:08.975Z,101074.74
2022-10-17T03:52:37.945Z,101077.42
2022-10-17T03:55:06.262Z,101076.75
2022-10-17T03:57:37.071Z,101075.58
2022-10-17T04:00:07.078Z,101077.36
2022-10-17T04:02:46.420Z,101080.01
2022-10-17T04:05:19.037Z,101080.36
2022-10-17T04:07:48.041Z,101082.17
2022-10-17T04:10:17.175Z,101085.08
2022-10-17T04:12:46.368Z,101084.74
2022-10-17T04:15:14.823Z,101083.30
2022-10-17T04:17:42.969Z,101083.39
2022-10-17T04:20:11.042Z,101089.59
2022-10-17T04:22:38.858Z,101090.29
2022-10-17T04:25:07.694Z,101089.51
2022-10-17T04:27:40.367Z,101093.68
2022-10-17T04:30:09.144Z,101092.64
2022-10-17T04:32:40.100Z,101090.62
2022-10-17T04:35:34.972Z,101089.77
2022-10-17T04:38:04.357Z,101091.98
2022-10-17T04:40:32.317Z,101096.02
2022-10-17T04:43:00.311Z,101091.84
2022-10-17T04:45:36.075Z,101098.30
2022-10-17T04:48:04.750Z,101098.52
2022-10-17T04:50:32.751Z,101100.58
2022-10-17T04:53:31.960Z,101099.90
2022-10-17T04:56:00.378Z,101089.35
2022-10-17T04:58:30.539Z,101091.86
2022-10-17T05:01:08.746Z,101091.16
2022-10-17T05:03:40.723Z,101086.15
2022-10-17T05:06:18.060Z,101093.85
2022-10-17T05:08:49.090Z,101097.65
2022-10-17T05:11:25.522Z,101099.31
2022-10-17T05:14:00.384Z,101102.89
2022-10-17T05:16:30.910Z,101105.99
2022-10-17T05:19:00.843Z,101108.63
2022-10-17T05:24:11.873Z,101113.52
2022-10-17T05:26:39.959Z,101115.11
2022-10-17T05:29:07.969Z,101118.31
2022-10-17T05:31:39.183Z,101123.16
2022-10-17T05:34:13.076Z,101123.70
2022-10-17T05:36:42.625Z,101126.49
2022-10-17T05:39:14.791Z,101129.27
2022-10-17T05:41:43.361Z,101129.34
2022-10-17T05:44:11.398Z,101135.73
2022-10-17T05:46:42.785Z,101139.89
2022-10-17T05:49:25.223Z,101141.71
2022-10-17T05:52:00.316Z,101147.43
2022-10-17T05:54:30.712Z,101149.66
2022-10-17T05:56:58.858Z,101155.17
2022-10-17T05:59:29.964Z,101155.71
2022-10-17T06:02:05.348Z,101152.67
2022-10-17T06:04:33.483Z,101156.34
2022-10-17T06:07:02.908Z,101154.27
2022-10-17T06:09:32.687Z,101157.45
2022-10-17T06:12:00.639Z,101156.84
2022-10-17T06:14:30.219Z,101158.77
2022-10-17T06:17:01.812Z,101151.33
2022-10-17T06:19:30.002Z,101153.80
2022-10-17T06:21:58.629Z,101152.41
2022-10-17T06:24:29.357Z,101151.17
2022-10-17T06:26:58.457Z,101155.27
2022-10-17T06:29:28.487Z,101158.79
2022-10-17T06:31:56.436Z,101167.23
2022-10-17T06:34:25.120Z,101170.04
2022-10-17T06:36:53.192Z,101174.85
2022-10-17T06:39:26.982Z,101173.31
2022-10-17T06:42:16.487Z,101172.36
2022-10-17T06:44:52.474Z,101177.64
2022-10-17T06:47:49.229Z,101177.27
2022-10-17T06:50:51.370Z,101181.21
2022-10-17T06:53:29.238Z,101183.66
2022-10-17T06:56:16.303Z,101191.66
2022-10-17T06:58:56.116Z,101196.86
2022-10-17T07:01:32.295Z,101201.23
2022-10-17T07:04:02.448Z,101206.00
2022-10-17T07:06:32.506Z,101201.35
2022-10-17T07:09:09.793Z,101204.52
2022-10-17T07:11:42.691Z,101203.67
2022-10-17T07:14:10.644Z,101203.25
2022-10-17T07:16:40.679Z,101203.66
2022-10-17T07:19:16.383Z,101206.17
2022-10-17T07:21:45.498Z,101208.53
2022-10-17T07:24:13.884Z,101209.96
2022-10-17T07:26:46.959Z,101215.29
2022-10-17T07:29:15.862Z,101214.81
2022-10-17T07:31:50.325Z,101211.72
2022-10-17T07:34:21.799Z,101213.20
2022-10-17T07:36:56.731Z,101213.48
2022-10-17T07:39:42.675Z,101215.08
2022-10-17T07:42:14.730Z,101214.50
2022-10-17T07:44:42.896Z,101211.52
2022-10-17T07:47:11.382Z,101208.20
2022-10-17T07:49:44.630Z,101205.70
2022-10-17T07:52:19.357Z,101208.33
2022-10-17T07:54:47.898Z,101208.20
2022-10-17T07:57:16.243Z,101211.05
2022-10-17T07:59:47.970Z,101214.98
2022-10-17T08:02:25.521Z,101214.85
2022-10-17T08:04:54.305Z,101211.33
2022-10-17T08:07:25.500Z,101208.30
2022-10-17T08:09:58.904Z,101215.48
2022-10-17T08:12:32.861Z,101217.05
2022-10-17T08:15:01.621Z,101218.21
2022-10-17T08:17:31.220Z,101216.60
2022-10-17T08:19:59.197Z,101218.72
2022-10-17T08:22:28.238Z,101219.77
2022-10-17T08:24:57.939Z,101219.80
2022-10-17T08:27:29.373Z,101220.23
2022-10-17T08:29:57.719Z,101223.67
2022-10-17T08:32:28.162Z,101223.95
2022-10-17T08:34:57.918Z,101219.11
2022-10-17T08:37:25.794Z,101212.80
2022-10-17T08:39:53.602Z,101210.33
2022-10-17T08:42:29.652Z,101208.53
2022-10-17T08:45:24.789Z,101209.96
2022-10-17T08:47:58.946Z,101209.25
2022-10-17T08:51:09.763Z,101206.09
2022-10-17T08:53:48.212Z,101206.92
2022-10-17T08:56:47.560Z,101207.28
2022-10-17T08:59:28.052Z,101210.23
2022-10-17T09:02:00.477Z,101211.25
2022-10-17T09:04:46.694Z,101211.70
2022-10-17T09:07:29.407Z,101220.05
2022-10-17T09:10:01.800Z,101212.27
2022-10-17T09:13:21.301Z,101212.13
2022-10-17T09:16:23.375Z,101213.50
2022-10-17T09:19:07.428Z,101213.08
2022-10-17T09:22:20.927Z,101211.05
2022-10-17T09:25:19.817Z,101207.90
2022-10-17T09:28:27.506Z,101205.75
2022-10-17T09:31:44.955Z,101204.57
2022-10-17T09:34:26.732Z,101202.98
2022-10-17T09:37:08.592Z,101203.36
2022-10-17T09:39:53.698Z,101195.09
2022-10-17T09:42:28.836Z,101193.21
2022-10-17T09:45:33.525Z,101196.75
2022-10-17T09:48:25.709Z,101199.71
2022-10-17T09:51:14.959Z,101192.48
2022-10-17T09:54:04.656Z,101199.00
2022-10-17T09:57:12.842Z,101192.09
2022-10-17T10:00:02.733Z,101191.44
2022-10-17T10:02:41.679Z,101187.07
2022-10-17T10:05:23.127Z,101190.45
2022-10-17T10:08:19.399Z,101189.35
2022-10-17T10:11:03.491Z,101188.42
2022-10-17T10:13:52.230Z,101184.89
2022-10-17T10:16:36.658Z,101188.71
2022-10-17T10:19:32.681Z,101187.61
2022-10-17T10:22:25.558Z,101181.74
2022-10-17T10:25:25.319Z,101186.90
2022-10-17T10:27:59.358Z,101185.39
2022-10-17T10:30:39.151Z,101191.36
2022-10-17T10:33:30.223Z,101194.09
2022-10-17T10:36:04.015Z,101198.67
2022-10-17T10:38:45.567Z,101195.34
2022-10-17T10:41:13.790Z,101192.52
2022-10-17T10:43:48.702Z,101189.20
2022-10-17T10:46:44.698Z,101183.98
2022-10-17T10:49:33.775Z,101181.77
2022-10-17T10:52:03.999Z,101182.20
2022-10-17T10:57:21.551Z,101182.00
2022-10-17T11:00:21.366Z,101175.15
2022-10-17T11:03:20.093Z,101170.59
2022-10-17T11:06:11.522Z,101167.02
2022-10-17T11:08:50.387Z,101167.16
2022-10-17T11:11:45.008Z,101168.69
2022-10-17T11:14:42.892Z,101169.63
2022-10-17T11:17:37.652Z,101167.58
2022-10-17T11:20:09.322Z,101165.16
2022-10-17T11:22:50.643Z,101161.13
2022-10-17T11:25:33.135Z,101157.30
2022-10-17T11:28:05.575Z,101155.94
2022-10-17T11:30:52.087Z,101153.00
2022-10-17T11:33:26.093Z,101151.80
2022-10-17T11:36:01.619Z,101145.16
2022-10-17T11:38:40.401Z,101145.61
2022-10-17T11:41:18.131Z,101143.42
2022-10-17T11:43:59.488Z,101143.50
2022-10-17T11:46:28.835Z,101141.05
2022-10-17T11:49:00.750Z,101138.30
2022-10-17T11:54:22.619Z,101132.49
2022-10-17T11:57:15.565Z,101134.35
2022-10-17T12:00:06.900Z,101137.91
2022-10-17T12:02:48.719Z,101137.90
2022-10-17T12:05:36.268Z,101131.27
2022-10-17T12:08:30.577Z,101131.49
2022-10-17T12:11:19.052Z,101128.86
2022-10-17T12:13:49.632Z,101131.31
2022-10-17T12:16:17.682Z,101131.13
2022-10-17T12:18:51.179Z,101128.99
2022-10-17T12:21:19.015Z,101124.61
2022-10-17T12:23:55.846Z,101119.87
2022-10-17T12:26:40.310Z,101122.06
2022-10-17T12:29:27.119Z,101118.16
2022-10-17T12:31:55.270Z,101120.37
2022-10-17T12:34:25.468Z,101116.63
2022-10-17T12:36:54.647Z,101116.17
2022-10-17T12:39:25.783Z,101110.09
2022-10-17T12:41:54.172Z,101111.29
2022-10-17T12:44:21.994Z,101117.19
2022-10-17T12:47:11.399Z,101116.34
2022-10-17T12:49:45.969Z,101116.11
2022-10-17T12:52:21.993Z,101117.13
2022-10-17T12:55:07.231Z,101118.29
2022-10-17T12:57:48.232Z,101116.48
2022-10-17T13:00:17.563Z,101112.60
2022-10-17T13:02:48.990Z,101109.73
2022-10-17T13:05:30.005Z,101099.14
2022-10-17T13:08:01.351Z,101091.73
2022-10-17T13:10:34.022Z,101091.10
2022-10-17T13:13:22.017Z,101094.80
2022-10-17T13:15:55.053Z,101092.05
2022-10-17T13:18:33.583Z,101091.76
2022-10-17T13:21:14.899Z,101094.91
2022-10-17T13:23:45.653Z,101099.88
2022-10-17T13:26:34.131Z,101105.66
2022-10-17T13:29:21.006Z,101105.01
2022-10-17T13:32:17.948Z,101100.13
2022-10-17T13:34:46.089Z,101089.56
2022-10-17T13:37:15.807Z,101088.58
2022-10-17T13:39:57.988Z,101088.30
2022-10-17T13:42:29.911Z,101084.48
2022-10-17T13:44:58.999Z,101081.52
2022-10-17T13:47:33.629Z,101082.39
2022-10-17T13:50:06.852Z,101082.73
2022-10-17T13:52:40.911Z,101078.15
2022-10-17T13:55:23.623Z,101072.91
2022-10-17T13:58:18.716Z,101068.39
2022-10-17T14:00:50.843Z,101067.04
2022-10-17T14:03:21.846Z,101068.66
2022-10-17T14:06:12.005Z,101068.35
2022-10-17T14:08:56.711Z,101065.71
2022-10-17T14:13:11.214Z,101064.73
2022-10-17T14:19:31.776Z,101065.20
2022-10-17T14:22:38.594Z,101066.70
2022-10-17T14:25:33.030Z,101069.48
2022-10-17T14:28:19.756Z,101068.97
2022-10-17T14:31:03.753Z,101069.59
2022-10-17T14:33:50.679Z,101068.44
2022-10-17T14:36:23.091Z,101065.40
2022-10-17T14:43:12.310Z,101059.13
2022-10-17T14:47:42.731Z,101062.61
2022-10-17T14:50:11.665Z,101056.80
2022-10-17T14:52:40.785Z,101052.40
2022-10-17T14:55:23.163Z,101053.23
2022-10-17T14:57:50.896Z,101056.70
2022-10-17T15:00:20.380Z,101058.63
2022-10-17T15:02:49.799Z,101053.43
2022-10-17T15:05:17.852Z,101050.93
2022-10-17T15:07:46.441Z,101048.77
2022-10-17T15:10:32.040Z,101044.09
2022-10-17T15:13:26.179Z,101042.54
2022-10-17T15:15:52.667Z,101041.16
2022-10-17T15:18:20.417Z,101041.05
2022-10-17T15:20:52.668Z,101042.21
2022-10-17T15:23:31.562Z,101039.95
2022-10-17T15:25:59.588Z,101037.92
2022-10-17T15:28:27.478Z,101037.98
2022-10-17T15:30:55.356Z,101040.32
2022-10-17T15:33:23.237Z,101039.08
2022-10-17T15:35:53.016Z,101036.52
2022-10-17T15:38:20.859Z,101040.02
2022-10-17T15:40:50.949Z,101041.63
2022-10-17T15:43:20.037Z,101040.50
2022-10-17T15:45:48.448Z,101040.05
2022-10-17T15:48:27.217Z,101039.09
2022-10-17T15:50:55.066Z,101041.14
2022-10-17T15:53:23.935Z,101042.41
2022-10-17T15:55:52.206Z,101041.72
2022-10-17T15:58:20.148Z,101045.13
2022-10-17T16:00:48.460Z,101051.30
2022-10-17T16:03:16.437Z,101050.89
2022-10-17T16:05:44.331Z,101049.67
2022-10-17T16:08:12.067Z,101051.45
2022-10-17T16:10:40.641Z,101051.97
2022-10-17T16:13:18.524Z,101051.85
2022-10-17T16:15:46.725Z,101051.69
2022-10-17T16:18:14.932Z,101050.34
2022-10-17T16:20:42.799Z,101048.38
2022-10-17T16:23:12.510Z,101047.13
2022-10-17T16:25:40.890Z,101050.35
2022-10-17T16:28:10.129Z,101045.15
2022-10-17T16:30:46.468Z,101045.13
2022-10-17T16:33:14.398Z,101051.42
2022-10-17T16:35:42.794Z,101049.05
2022-10-17T16:38:10.891Z,101049.98
2022-10-17T16:40:39.642Z,101051.80
2022-10-17T16:43:09.810Z,101052.18
2022-10-17T16:45:37.626Z,101053.23
2022-10-17T16:48:05.902Z,101057.89
2022-10-17T16:50:35.650Z,101054.33
2022-10-17T16:53:04.076Z,101053.45
2022-10-17T16:55:31.923Z,101052.41
2022-10-17T16:58:00.229Z,101052.99
2022-10-17T17:00:28.449Z,101053.63
2022-10-17T17:02:56.510Z,101057.44
2022-10-17T17:05:24.269Z,101053.42
2022-10-17T17:07:52.156Z,101053.40
2022-10-17T17:10:19.885Z,101057.83
2022-10-17T17:12:47.787Z,101057.05
2022-10-17T17:15:15.751Z,101061.71
2022-10-17T17:17:54.977Z,101059.77
2022-10-17T17:20:23.706Z,101064.66
2022-10-17T17:22:54.645Z,101063.89
2022-10-17T17:25:22.938Z,101058.23
2022-10-17T17:27:50.850Z,101064.36
2022-10-17T17:30:18.724Z,101068.34
2022-10-17T17:32:46.648Z,101072.13
2022-10-17T17:35:14.399Z,101075.34
2022-10-17T17:37:42.387Z,101077.00
2022-10-17T17:40:11.284Z,101078.90
2022-10-17T17:42:39.075Z,101078.55
2022-10-17T17:45:07.614Z,101073.52
2022-10-17T17:47:35.524Z,101071.15
2022-10-17T17:50:03.753Z,101076.14
2022-10-17T17:52:36.889Z,101083.55
2022-10-17T17:55:07.786Z,101082.06
2022-10-17T17:57:35.580Z,101083.66
2022-10-17T18:00:05.018Z,101081.57
2022-10-17T18:02:33.059Z,101079.08
2022-10-17T18:05:01.055Z,101083.38
2022-10-17T18:07:30.344Z,101087.63
2022-10-17T18:09:58.713Z,101085.78
2022-10-17T18:12:30.312Z,101088.70
2022-10-17T18:14:58.497Z,101086.80
2022-10-17T18:17:29.841Z,101080.34
2022-10-17T18:20:00.568Z,101081.02
2022-10-17T18:22:29.690Z,101081.78
2022-10-17T18:24:57.641Z,101079.86
2022-10-17T18:27:25.434Z,101080.40
2022-10-17T18:29:53.618Z,101081.04
2022-10-17T18:32:21.879Z,101087.48
2022-10-17T18:34:50.427Z,101083.88
2022-10-17T18:37:18.347Z,101087.38
2022-10-17T18:39:49.234Z,101085.77
2022-10-17T18:42:18.083Z,101082.41
2022-10-17T18:44:47.435Z,101078.23
2022-10-17T18:47:16.183Z,101080.50
2022-10-17T18:49:44.013Z,101083.02
2022-10-17T18:52:11.864Z,101079.09
2022-10-17T18:54:39.595Z,101079.05
2022-10-17T18:57:07.523Z,101084.52
2022-10-17T18:59:35.378Z,101087.59
2022-10-17T19:02:03.234Z,101087.08
2022-10-17T19:04:31.093Z,101084.76
2022-10-17T19:06:58.838Z,101083.24
2022-10-17T19:09:26.666Z,101083.42
2022-10-17T19:11:54.634Z,101091.25
2022-10-17T19:14:22.446Z,101088.27
2022-10-17T19:16:50.951Z,101091.20
2022-10-17T19:19:23.864Z,101088.64
2022-10-17T19:21:51.922Z,101086.73
2022-10-17T19:24:26.490Z,101084.71
2022-10-17T19:26:57.566Z,101079.80
2022-10-17T19:29:28.442Z,101084.27
2022-10-17T19:34:29.048Z,101079.55
2022-10-17T19:36:56.819Z,101082.42
2022-10-17T19:39:25.157Z,101085.41
2022-10-17T19:41:53.168Z,101085.10
2022-10-17T19:44:21.976Z,101080.46
2022-10-17T19:46:49.812Z,101080.66
2022-10-17T19:49:17.966Z,101083.52
2022-10-17T19:51:45.797Z,101079.21
2022-10-17T19:54:15.297Z,101078.93
2022-10-17T19:56:43.510Z,101079.39
2022-10-17T19:59:13.699Z,101082.13
2022-10-17T20:01:41.818Z,101084.38
2022-10-17T20:04:13.399Z,101089.55
2022-10-17T20:06:41.520Z,101096.45
2022-10-17T20:09:15.689Z,101097.27
2022-10-17T20:11:45.377Z,101103.62
2022-10-17T20:14:13.145Z,101109.96
2022-10-17T20:16:41.333Z,101109.11
2022-10-17T20:19:11.108Z,101108.84
2022-10-17T20:21:39.768Z,101109.48
2022-10-17T20:24:11.044Z,101110.88
2022-10-17T20:26:39.873Z,101114.41
2022-10-17T20:29:14.359Z,101111.73
2022-10-17T20:31:44.342Z,101112.00
2022-10-17T20:34:14.084Z,101109.04
2022-10-17T20:36:41.938Z,101109.47
2022-10-17T20:39:11.142Z,101109.00
2022-10-17T20:41:39.229Z,101105.30
2022-10-17T20:44:07.324Z,101102.77
2022-10-17T20:46:37.647Z,101098.09
2022-10-17T20:49:08.309Z,101093.36
2022-10-17T20:51:36.119Z,101088.88
2022-10-17T20:54:04.707Z,101094.91
2022-10-17T20:56:34.370Z,101098.48
2022-10-17T20:59:04.991Z,101105.36
2022-10-17T21:01:35.279Z,101110.84
2022-10-17T21:04:27.067Z,101108.92
2022-10-17T21:06:52.252Z,101113.66
2022-10-17T21:09:20.610Z,101113.63
2022-10-17T21:11:51.227Z,101111.19
2022-10-17T21:14:19.164Z,101109.42
2022-10-17T21:16:47.344Z,101106.99
2022-10-17T21:19:15.931Z,101109.08
2022-10-17T21:21:45.754Z,101115.66
2022-10-17T21:24:17.379Z,101115.40
2022-10-17T21:26:46.811Z,101115.94
2022-10-17T21:29:14.897Z,101113.52
2022-10-17T21:31:44.038Z,101117.56
2022-10-17T21:34:14.834Z,101114.11
2022-10-17T21:36:43.840Z,101115.27
2022-10-17T21:39:12.723Z,101117.42
2022-10-17T21:41:40.987Z,101118.70
2022-10-17T21:44:14.899Z,101115.15
2022-10-17T21:46:43.289Z,101117.33
2022-10-17T21:49:12.476Z,101117.41
2022-10-17T21:51:40.764Z,101115.58
2022-10-17T21:54:08.667Z,101116.30
2022-10-17T21:56:36.525Z,101117.64
2022-10-17T21:59:05.470Z,101115.38
2022-10-17T22:01:39.731Z,101114.56
2022-10-17T22:04:10.890Z,101112.00
2022-10-17T22:06:41.011Z,101118.20
2022-10-17T22:09:15.997Z,101111.23
2022-10-17T22:11:48.664Z,101113.23
2022-10-17T22:14:19.092Z,101114.61
2022-10-17T22:16:47.974Z,101112.73
2022-10-17T22:19:21.949Z,101111.34
2022-10-17T22:21:50.104Z,101109.91
2022-10-17T22:26:47.481Z,101114.70
2022-10-17T22:29:15.808Z,101116.08
2022-10-17T22:31:43.680Z,101118.73
2022-10-17T22:34:13.448Z,101119.77
2022-10-17T22:36:41.700Z,101114.35
2022-10-17T22:39:10.053Z,101117.38
2022-10-17T22:41:37.963Z,101116.67
2022-10-17T22:44:05.886Z,101111.37
2022-10-17T22:46:34.178Z,101114.27
2022-10-17T22:49:02.145Z,101113.45
2022-10-17T22:51:29.926Z,101113.80
2022-10-17T22:53:57.758Z,101113.88
2022-10-17T22:56:25.749Z,101115.03
2022-10-17T22:58:53.601Z,101114.77
2022-10-17T23:01:38.491Z,101116.56
2022-10-17T23:04:06.804Z,101116.16
2022-10-17T23:06:35.123Z,101114.11
2022-10-17T23:09:04.450Z,101109.56
2022-10-17T23:11:32.379Z,101106.13
2022-10-17T23:14:00.198Z,101103.02
2022-10-17T23:16:28.143Z,101101.52
2022-10-17T23:18:57.488Z,101099.65
2022-10-17T23:21:26.274Z,101099.05
2022-10-17T23:23:54.088Z,101094.33
2022-10-17T23:26:21.895Z,101098.50
2022-10-17T23:28:54.629Z,101098.84
2022-10-17T23:31:23.434Z,101094.58
2022-10-17T23:33:51.400Z,101095.35
2022-10-17T23:36:20.494Z,101093.97
2022-10-17T23:38:48.800Z,101094.85
2022-10-17T23:41:17.145Z,101090.98
2022-10-17T23:43:45.244Z,101087.94
2022-10-17T23:46:13.863Z,101088.90
2022-10-17T23:48:41.866Z,101089.55
2022-10-17T23:51:10.838Z,101095.58
2022-10-17T23:53:39.928Z,101092.15
2022-10-17T23:56:09.362Z,101090.09
2022-10-17T23:58:38.369Z,101091.84
